createdAt,value
2023-03-22T00:02:04.548Z,100.00
2023-03-22T00:05:07.996Z,100.00
2023-03-22T00:08:13.510Z,100.00
2023-03-22T00:11:17.516Z,100.00
2023-03-22T00:14:20.341Z,100.00
2023-03-22T00:17:23.422Z,100.00
2023-03-22T00:20:33.838Z,100.00
2023-03-22T00:23:36.721Z,100.00
2023-03-22T00:26:39.481Z,100.00
2023-03-22T00:29:42.710Z,100.00
2023-03-22T00:32:45.665Z,100.00
2023-03-22T00:35:53.583Z,100.00
2023-03-22T00:38:56.476Z,100.00
2023-03-22T00:41:59.477Z,100.00
2023-03-22T00:45:02.164Z,100.00
2023-03-22T00:48:05.547Z,100.00
2023-03-22T00:51:11.793Z,100.00
2023-03-22T00:54:14.921Z,100.00
2023-03-22T00:57:18.244Z,100.00
2023-03-22T01:00:21.534Z,100.00
2023-03-22T01:03:24.772Z,100.00
2023-03-22T01:06:28.201Z,100.00
2023-03-22T01:09:33.773Z,100.00
2023-03-22T01:12:36.833Z,100.00
2023-03-22T01:15:39.692Z,100.00
2023-03-22T01:18:43.297Z,100.00
2023-03-22T01:21:46.719Z,100.00
2023-03-22T01:24:50.405Z,100.00
2023-03-22T01:27:53.969Z,100.00
2023-03-22T01:31:00.608Z,100.00
2023-03-22T01:34:03.671Z,100.00
2023-03-22T01:37:07.355Z,100.00
2023-03-22T01:40:13.203Z,100.00
2023-03-22T01:43:17.383Z,100.00
2023-03-22T01:46:20.854Z,100.00
2023-03-22T01:49:28.632Z,100.00
2023-03-22T01:52:31.787Z,100.00
2023-03-22T01:55:35.244Z,100.00
2023-03-22T01:58:40.610Z,100.00
2023-03-22T02:01:46.982Z,100.00
2023-03-22T02:04:58.148Z,100.00
2023-03-22T02:08:02.923Z,100.00
2023-03-22T02:11:07.565Z,100.00
2023-03-22T02:14:31.205Z,100.00
2023-03-22T02:17:59.690Z,100.00
2023-03-22T02:21:11.552Z,100.00
2023-03-22T02:24:48.457Z,100.00
2023-03-22T02:28:12.324Z,100.00
2023-03-22T02:31:56.661Z,100.00
2023-03-22T02:35:22.787Z,100.00
2023-03-22T02:38:59.152Z,100.00
2023-03-22T02:42:17.649Z,100.00
2023-03-22T02:45:30.300Z,100.00
2023-03-22T02:48:46.043Z,100.00
2023-03-22T02:52:12.730Z,100.00
2023-03-22T02:55:30.835Z,100.00
2023-03-22T02:58:40.071Z,100.00
2023-03-22T03:01:50.468Z,100.00
2023-03-22T03:04:56.128Z,100.00
2023-03-22T03:08:02.738Z,100.00
2023-03-22T03:11:07.144Z,100.00
2023-03-22T03:14:20.712Z,100.00
2023-03-22T03:17:23.805Z,100.00
2023-03-22T03:20:42.633Z,100.00
2023-03-22T03:24:16.973Z,100.00
2023-03-22T03:27:36.506Z,100.00
2023-03-22T03:30:49.471Z,100.00
2023-03-22T03:34:06.580Z,100.00
2023-03-22T03:37:14.578Z,100.00
2023-03-22T03:41:00.356Z,100.00
2023-03-22T03:44:04.438Z,100.00
2023-03-22T03:47:08.658Z,100.00
2023-03-22T03:50:15.697Z,100.00
2023-03-22T03:53:18.717Z,100.00
2023-03-22T03:56:21.817Z,100.00
2023-03-22T03:59:25.154Z,100.00
2023-03-22T04:02:28.795Z,100.00
2023-03-22T04:05:33.297Z,100.00
2023-03-22T04:08:36.103Z,100.00
2023-03-22T04:11:39.356Z,100.00
2023-03-22T04:14:42.371Z,100.00
2023-03-22T04:17:46.700Z,100.00
2023-03-22T04:20:53.516Z,100.00
2023-03-22T04:23:57.938Z,100.00
2023-03-22T04:27:01.685Z,100.00
2023-03-22T04:30:10.507Z,100.00
2023-03-22T04:33:16.703Z,100.00
2023-03-22T04:36:25.084Z,100.00
2023-03-22T04:39:29.318Z,100.00
2023-03-22T04:42:34.602Z,100.00
2023-03-22T04:45:39.159Z,100.00
2023-03-22T04:48:42.881Z,100.00
2023-03-22T04:51:46.386Z,100.00
2023-03-22T04:54:50.952Z,100.00
2023-03-22T04:57:54.783Z,100.00
2023-03-22T05:00:58.569Z,100.00
2023-03-22T05:04:01.318Z,100.00
2023-03-22T05:07:04.966Z,100.00
2023-03-22T05:10:08.998Z,100.00
2023-03-22T05:13:12.164Z,100.00
2023-03-22T05:16:15.231Z,100.00
2023-03-22T05:19:22.274Z,100.00
2023-03-22T05:22:25.863Z,100.00
2023-03-22T05:25:29.910Z,100.00
2023-03-22T05:28:34.390Z,100.00
2023-03-22T05:31:38.236Z,100.00
2023-03-22T05:34:45.505Z,100.00
2023-03-22T05:37:48.871Z,100.00
2023-03-22T05:40:52.006Z,100.00
2023-03-22T05:43:57.470Z,100.00
2023-03-22T05:47:00.550Z,100.00
2023-03-22T05:50:04.079Z,100.00
2023-03-22T05:53:07.022Z,100.00
2023-03-22T05:56:10.287Z,100.00
2023-03-22T05:59:13.304Z,100.00
2023-03-22T06:02:16.281Z,100.00
2023-03-22T06:05:21.094Z,100.00
2023-03-22T06:08:26.698Z,100.00
2023-03-22T06:11:33.918Z,100.00
2023-03-22T06:14:37.483Z,100.00
2023-03-22T06:17:42.410Z,100.00
2023-03-22T06:20:45.513Z,100.00
2023-03-22T06:23:49.516Z,100.00
2023-03-22T06:26:52.456Z,100.00
2023-03-22T06:29:55.919Z,100.00
2023-03-22T06:33:00.784Z,100.00
2023-03-22T06:36:04.796Z,100.00
2023-03-22T06:39:08.000Z,100.00
2023-03-22T06:42:11.357Z,100.00
2023-03-22T06:45:16.545Z,100.00
2023-03-22T06:48:19.831Z,100.00
2023-03-22T06:51:23.487Z,98.73
2023-03-22T06:54:26.543Z,98.09
2023-03-22T06:57:29.389Z,97.71
2023-03-22T07:00:34.296Z,95.19
2023-03-22T07:03:37.215Z,95.55
2023-03-22T07:06:40.448Z,95.13
2023-03-22T07:09:43.645Z,95.16
2023-03-22T07:12:48.896Z,94.15
2023-03-22T07:15:57.123Z,94.17
2023-03-22T07:19:01.946Z,94.22
2023-03-22T07:22:04.791Z,94.45
2023-03-22T07:25:09.011Z,95.66
2023-03-22T07:28:12.040Z,94.98
2023-03-22T07:31:16.224Z,95.32
2023-03-22T07:34:19.472Z,95.53
2023-03-22T07:37:24.814Z,94.30
2023-03-22T07:40:28.099Z,95.48
2023-03-22T07:43:35.386Z,97.67
2023-03-22T07:46:42.484Z,96.44
2023-03-22T07:49:51.489Z,97.07
2023-03-22T07:52:54.444Z,95.84
2023-03-22T07:55:57.564Z,95.09
2023-03-22T07:59:00.694Z,94.83
2023-03-22T08:02:04.385Z,93.83
2023-03-22T08:05:09.169Z,93.61
2023-03-22T08:08:13.656Z,93.03
2023-03-22T08:11:16.832Z,93.20
2023-03-22T08:14:27.441Z,92.02
2023-03-22T08:17:39.514Z,90.39
2023-03-22T08:20:45.819Z,89.55
2023-03-22T08:23:50.056Z,90.90
2023-03-22T08:26:56.277Z,91.46
2023-03-22T08:30:01.155Z,89.30
2023-03-22T08:33:04.554Z,89.98
2023-03-22T08:36:12.227Z,89.52
2023-03-22T08:39:16.088Z,88.71
2023-03-22T08:42:19.350Z,88.27
2023-03-22T08:45:22.478Z,87.38
2023-03-22T08:48:29.108Z,87.53
2023-03-22T08:51:32.751Z,87.42
2023-03-22T08:54:36.606Z,87.32
2023-03-22T08:57:41.759Z,87.03
2023-03-22T09:00:50.922Z,87.50
2023-03-22T09:03:54.921Z,86.46
2023-03-22T09:06:58.015Z,86.37
2023-03-22T09:10:00.775Z,84.86
2023-03-22T09:13:03.974Z,82.87
2023-03-22T09:16:08.931Z,82.59
2023-03-22T09:19:12.983Z,82.78
2023-03-22T09:22:16.501Z,83.52
2023-03-22T09:25:21.800Z,82.59
2023-03-22T09:28:25.243Z,82.96
2023-03-22T09:31:28.446Z,81.47
2023-03-22T09:34:33.412Z,80.59
2023-03-22T09:37:36.683Z,81.31
2023-03-22T09:40:50.625Z,80.91
2023-03-22T09:43:58.160Z,83.36
2023-03-22T09:47:04.254Z,83.19
2023-03-22T09:50:20.779Z,80.42
2023-03-22T09:53:26.945Z,79.34
2023-03-22T09:56:32.699Z,76.91
2023-03-22T09:59:53.075Z,75.89
2023-03-22T10:03:09.782Z,74.63
2023-03-22T10:06:19.427Z,72.05
2023-03-22T10:09:56.826Z,71.13
2023-03-22T10:13:46.555Z,72.12
2023-03-22T10:16:54.695Z,72.18
2023-03-22T10:20:09.213Z,70.98
2023-03-22T10:23:20.297Z,69.01
2023-03-22T10:26:31.215Z,66.85
2023-03-22T10:29:43.585Z,65.18
2023-03-22T10:32:59.258Z,66.37
2023-03-22T10:36:04.251Z,65.34
2023-03-22T10:39:32.745Z,67.70
2023-03-22T10:42:38.748Z,66.10
2023-03-22T10:45:42.722Z,66.98
2023-03-22T10:48:49.796Z,62.82
2023-03-22T10:51:58.160Z,63.01
2023-03-22T10:55:04.320Z,61.23
2023-03-22T10:58:21.761Z,61.18
2023-03-22T11:01:41.582Z,61.86
2023-03-22T11:04:56.856Z,59.74
2023-03-22T11:08:03.601Z,62.95
2023-03-22T11:11:15.003Z,61.91
2023-03-22T11:14:27.800Z,61.75
2023-03-22T11:17:31.444Z,61.57
2023-03-22T11:20:35.035Z,63.08
2023-03-22T11:23:41.307Z,64.40
2023-03-22T11:27:25.310Z,63.72
2023-03-22T11:30:29.654Z,63.75
2023-03-22T11:33:33.557Z,60.90
2023-03-22T11:36:44.442Z,59.91
2023-03-22T11:39:51.261Z,59.28
2023-03-22T11:42:57.088Z,58.53
2023-03-22T11:46:00.715Z,62.08
2023-03-22T11:49:09.288Z,61.22
2023-03-22T11:52:24.290Z,62.79
2023-03-22T11:55:31.799Z,60.35
2023-03-22T11:58:37.430Z,60.80
2023-03-22T12:01:51.308Z,59.35
2023-03-22T12:05:01.897Z,59.91
2023-03-22T12:08:18.926Z,61.01
2023-03-22T12:11:29.334Z,58.83
2023-03-22T12:14:48.385Z,56.99
2023-03-22T12:18:08.797Z,54.36
2023-03-22T12:21:12.093Z,54.05
2023-03-22T12:24:32.265Z,54.35
2023-03-22T12:27:41.031Z,53.87
2023-03-22T12:30:48.141Z,54.70
2023-03-22T12:33:54.802Z,49.59
2023-03-22T12:36:57.866Z,49.87
2023-03-22T12:40:16.096Z,50.26
2023-03-22T12:43:40.442Z,49.22
2023-03-22T12:46:56.037Z,50.34
2023-03-22T12:50:19.864Z,50.25
2023-03-22T12:53:27.724Z,52.61
2023-03-22T12:56:38.502Z,51.16
2023-03-22T12:59:44.177Z,50.61
2023-03-22T13:03:22.087Z,50.75
2023-03-22T13:06:50.924Z,49.25
2023-03-22T13:09:53.962Z,49.92
2023-03-22T13:13:16.749Z,50.32
2023-03-22T13:16:22.813Z,52.38
2023-03-22T13:20:12.601Z,51.73
2023-03-22T13:23:27.173Z,51.16
2023-03-22T13:26:47.959Z,50.59
2023-03-22T13:29:54.120Z,52.24
2023-03-22T13:33:08.851Z,52.98
2023-03-22T13:36:25.694Z,52.67
2023-03-22T13:39:34.717Z,52.47
2023-03-22T13:42:41.721Z,53.47
2023-03-22T13:46:26.368Z,54.86
2023-03-22T13:49:40.999Z,53.01
2023-03-22T13:53:04.221Z,52.08
2023-03-22T13:56:11.440Z,53.49
2023-03-22T13:59:25.487Z,55.37
2023-03-22T14:02:38.065Z,53.28
2023-03-22T14:05:44.279Z,53.85
2023-03-22T14:08:52.573Z,54.64
2023-03-22T14:12:31.079Z,52.91
2023-03-22T14:15:38.368Z,51.99
2023-03-22T14:18:44.349Z,52.17
